Portada
METAR-TAF:

METAR-TAF

Aeroports :

Yao, Japó

latitud: 34-36N, longitud: 135-36E, altitud: 10 m

Observació

L'informe es va fer fa 1 hora i 17 minuts, a les 09:00 UTC
Vent 6 kt del Est/Nord-Est
Temperatura 13°C
Humitat 62%
Pressió 1013 hPa
Visibilitat 10 km o més
Escasses núvols a una alçada de 3000 ft
Núvols disperses a una alçada de 14000 ft
Cel ennuvolat a una alçada de 17000 ft

METAR: RJOY 190900Z 06006KT 9999 FEW030 SCT140 BKN170 13/06 Q1013

Hora: 19:17 (10:17 UTC)


TAF: manca

Observacions i pronòstics meteorològics de més de 4000 aeroports (METAR i TAF).

Les estacions disponibles són els punts grocs i vermells al mapa.

Posi el ratolí al punt desitjat per veure el nom de l'estació.

Feu clic per veure les observacions i els pronòstics meteorològics.

Per canviar el mapa: feu clic els botons verds amb una creu de color negre per apropar; al botó verd amb un guió per allunyar la imatge; o en les fletxes verdes per a mapes adjacents.


METAR-TAF: